Terminal Aerodrome Forecast
Issued by NWS Lake Charles, LA

Home | Current Version | Previous Version | Text Only | Print | Product List | Glossary On
Versions: 1 2 3 4 5 6 7 8 9 10 11 12 13 14 15
488
FTUS44 KLCH 270520
TAFBPT
TAF
KBPT 270520Z 2706/2806 36006KT P6SM SCT050 BKN150
     FM271200 03010KT P6SM SCT050 BKN100=

USA.gov is the U.S. government's official web portal to all federal, state and local government web resources and services.